Coe Hill, Canada
Current Conditions -  °F | °C
As of 3:00 AM on Tuesday 21 Oct 2014 (Local Time) from CYPQ Reporting Station
Haze Haze  
Wind Chill: 48°   Ceiling: 300
Heat Index: 48°   Visibility: 0.62mi
Dew Point: 48°   Wind: 0mph
Humidity: 100%   Direction: NA
Pressure: 29.77"   Gusts: NA
Location:  44.85°N, 77.83°W
Report Text: CYPQ 210700Z AUTO 00000KT 5/8SM BR OVC003 09/09 A2977 RMK SLP085
Loading
Personal Weather Stations






























Interactive Weather Map
Tropical Storm Tracking
New forecast layout! Learn more

10-Day Weather Forecast

Advertisements
Track Severe Weather on mobile